Broadus, MT (59317)

1:51 AM MDT on October 24, 2014 (GMT -0600)
Hulett | Change Station
CLOSE
Current Station
Airport
Location: Hulett,
Elevation: 4265 ft
Nearby Weather Stations

Elev 4265 ft 44.66 °N, 104.57 °W | Updated 16 minutes ago

Partly Cloudy
Partly Cloudy
46 °F
Feels Like 44 °F
N
6
Wind Variable Wind from SSW

Today
High -- | Low -- °F
--% Chance of Precip.
Yesterday
High -- | Low -- °F
Precip. -- in
7:30 AM 6:00 PM
New Moon, 0% visible
Pressure 29.95 in
Visibility 10.0 miles
Clouds Clear
Windchill 44 °F
Dew Point 30 °F
Humidity 53%
Rainfall 0.00 in
Snow Depth Not available.
UV 0 out of 12
Pollen 1.80 out of 12
Air Quality Not available.
Flu Activity No Activity
METAR KW43 240735Z AUTO 20005KT 10SM CLR 08/M01 A2995 RMK AO2

More Conditions Fewer Conditions

Pressure 29.95 in
Visibility 10.0 miles
Clouds Clear
Windchill 44 °F
Dew Point 30 °F
Humidity 53%
Rainfall 0.00 in
Snow Depth Not available.
UV 0 out of 12
Pollen 1.80 out of 12
Air Quality Not available.
Flu Activity No Activity
METAR KW43 240735Z AUTO 20005KT 10SM CLR 08/M01 A2995 RMK AO2

More Conditions Fewer Conditions

10-Day Weather Forecast

Almanac

Astronomy

Oct. 24, 2014 Rise Set
Actual Time 7:30 AM MDT 6:00 PM MDT
Civil Twilight 6:59 AM MDT 6:31 PM MDT
Nautical Twilight 6:25 AM MDT 7:05 PM MDT
Astronomical Twilight 5:50 AM MDT 7:39 PM MDT
Moon 8:13 AM MDT 6:40 PM MDT
Length of Visible Light 11h 31m
Length of Day
10h 30m
Tomorrow will be 2m 59s shorter.
New Moon, 0% of the Moon is Illuminated
Today
New Moon
Oct 30
First Quarter
Nov 6
Full
Nov 14
Last Quarter
Nov 22
New

Today's Extremes

State Highs State Lows

Community

WunderPhotos

Upload Photos

1,764,512 photos uploaded!

WunderBlogs® & News

Nearby

Snow Depth

Station Depth Elevation
Burnt Mountain 0 in 5880 ft
Crystal Lake 1 in 6050 ft
Fisher Creek 2 in 9100 ft
Northeast Entrance 0 in 7350 ft
Placer Basin 0 in 8830 ft

Earthquake Activity

City Distance Mag. Time & Date
No recent earthquake activity has been reported nearby.
Minimum magnitude displayed is 2.5.

Coastal Water Temperatures

Place Temperature
No Stations Reporting

Nearby Weather Stations